sensor_id;sensor_type;location;lat;lon;timestamp;P1;durP1;ratioP1;P2;durP2;ratioP2
5351;SDS011;2698;51.454;6.736;2023-04-08T00:01:18;32.73;;;26.20;;
5351;SDS011;2698;51.454;6.736;2023-04-08T00:03:45;35.50;;;27.13;;
5351;SDS011;2698;51.454;6.736;2023-04-08T00:06:12;38.27;;;27.73;;
5351;SDS011;2698;51.454;6.736;2023-04-08T00:08:40;38.87;;;27.50;;
5351;SDS011;2698;51.454;6.736;2023-04-08T00:11:07;33.67;;;27.73;;
5351;SDS011;2698;51.454;6.736;2023-04-08T00:13:34;37.23;;;27.53;;
5351;SDS011;2698;51.454;6.736;2023-04-08T00:16:02;32.33;;;27.20;;
5351;SDS011;2698;51.454;6.736;2023-04-08T00:18:30;35.70;;;28.53;;
5351;SDS011;2698;51.454;6.736;2023-04-08T00:20:57;34.03;;;27.20;;
5351;SDS011;2698;51.454;6.736;2023-04-08T00:23:24;34.77;;;28.20;;
5351;SDS011;2698;51.454;6.736;2023-04-08T00:25:51;32.40;;;27.37;;
5351;SDS011;2698;51.454;6.736;2023-04-08T00:28:18;32.40;;;26.63;;
5351;SDS011;2698;51.454;6.736;2023-04-08T00:30:45;37.90;;;28.67;;
5351;SDS011;2698;51.454;6.736;2023-04-08T00:33:14;37.90;;;29.00;;
5351;SDS011;2698;51.454;6.736;2023-04-08T00:35:41;36.63;;;29.57;;
5351;SDS011;2698;51.454;6.736;2023-04-08T00:38:08;33.53;;;26.30;;
5351;SDS011;2698;51.454;6.736;2023-04-08T00:40:35;32.90;;;27.50;;
5351;SDS011;2698;51.454;6.736;2023-04-08T00:43:02;30.43;;;25.97;;
5351;SDS011;2698;51.454;6.736;2023-04-08T00:45:30;32.67;;;27.77;;
5351;SDS011;2698;51.454;6.736;2023-04-08T00:47:57;31.97;;;27.27;;
5351;SDS011;2698;51.454;6.736;2023-04-08T00:50:25;34.63;;;28.80;;
5351;SDS011;2698;51.454;6.736;2023-04-08T00:52:52;36.23;;;27.90;;
5351;SDS011;2698;51.454;6.736;2023-04-08T00:55:19;38.80;;;30.87;;
5351;SDS011;2698;51.454;6.736;2023-04-08T00:57:47;32.50;;;27.47;;
5351;SDS011;2698;51.454;6.736;2023-04-08T01:00:14;37.97;;;29.07;;
5351;SDS011;2698;51.454;6.736;2023-04-08T01:02:45;34.20;;;28.90;;
5351;SDS011;2698;51.454;6.736;2023-04-08T01:05:14;33.10;;;27.27;;
5351;SDS011;2698;51.454;6.736;2023-04-08T01:07:47;29.17;;;24.60;;
5351;SDS011;2698;51.454;6.736;2023-04-08T01:10:16;32.43;;;25.30;;
5351;SDS011;2698;51.454;6.736;2023-04-08T01:12:47;34.10;;;26.90;;
5351;SDS011;2698;51.454;6.736;2023-04-08T01:15:14;33.50;;;27.77;;
5351;SDS011;2698;51.454;6.736;2023-04-08T01:17:41;34.20;;;25.07;;
5351;SDS011;2698;51.454;6.736;2023-04-08T01:20:09;34.07;;;27.27;;
5351;SDS011;2698;51.454;6.736;2023-04-08T01:22:40;39.37;;;28.30;;
5351;SDS011;2698;51.454;6.736;2023-04-08T01:25:13;31.20;;;25.83;;
5351;SDS011;2698;51.454;6.736;2023-04-08T01:27:43;34.93;;;26.97;;
5351;SDS011;2698;51.454;6.736;2023-04-08T01:30:12;34.43;;;28.07;;
5351;SDS011;2698;51.454;6.736;2023-04-08T01:32:40;35.20;;;27.80;;
5351;SDS011;2698;51.454;6.736;2023-04-08T01:35:08;33.23;;;27.23;;
5351;SDS011;2698;51.454;6.736;2023-04-08T01:37:36;32.23;;;26.73;;
5351;SDS011;2698;51.454;6.736;2023-04-08T01:40:04;36.67;;;28.93;;
5351;SDS011;2698;51.454;6.736;2023-04-08T01:42:33;43.43;;;29.00;;
5351;SDS011;2698;51.454;6.736;2023-04-08T01:45:02;38.10;;;30.53;;
5351;SDS011;2698;51.454;6.736;2023-04-08T01:47:30;36.47;;;30.03;;
5351;SDS011;2698;51.454;6.736;2023-04-08T01:49:57;36.60;;;29.80;;
5351;SDS011;2698;51.454;6.736;2023-04-08T01:52:25;48.70;;;31.27;;
5351;SDS011;2698;51.454;6.736;2023-04-08T01:54:52;32.50;;;27.20;;
5351;SDS011;2698;51.454;6.736;2023-04-08T01:57:21;38.30;;;29.23;;
5351;SDS011;2698;51.454;6.736;2023-04-08T01:59:49;39.93;;;30.27;;
5351;SDS011;2698;51.454;6.736;2023-04-08T02:02:19;37.33;;;29.00;;
5351;SDS011;2698;51.454;6.736;2023-04-08T02:04:46;43.50;;;31.83;;
5351;SDS011;2698;51.454;6.736;2023-04-08T02:07:14;39.63;;;30.70;;
5351;SDS011;2698;51.454;6.736;2023-04-08T02:09:41;41.20;;;31.47;;
5351;SDS011;2698;51.454;6.736;2023-04-08T02:12:08;39.67;;;30.60;;
5351;SDS011;2698;51.454;6.736;2023-04-08T02:14:35;38.93;;;29.67;;
5351;SDS011;2698;51.454;6.736;2023-04-08T02:17:04;43.10;;;31.50;;
5351;SDS011;2698;51.454;6.736;2023-04-08T02:19:35;39.70;;;30.47;;
5351;SDS011;2698;51.454;6.736;2023-04-08T02:22:04;42.60;;;32.27;;
5351;SDS011;2698;51.454;6.736;2023-04-08T02:24:31;40.43;;;30.37;;
5351;SDS011;2698;51.454;6.736;2023-04-08T02:26:59;46.10;;;33.93;;
5351;SDS011;2698;51.454;6.736;2023-04-08T02:29:28;45.27;;;32.67;;
5351;SDS011;2698;51.454;6.736;2023-04-08T02:31:57;41.10;;;32.93;;
5351;SDS011;2698;51.454;6.736;2023-04-08T02:34:24;47.70;;;34.30;;
5351;SDS011;2698;51.454;6.736;2023-04-08T02:36:53;47.43;;;30.63;;
5351;SDS011;2698;51.454;6.736;2023-04-08T02:39:20;42.70;;;33.17;;
5351;SDS011;2698;51.454;6.736;2023-04-08T02:41:47;41.50;;;32.07;;
5351;SDS011;2698;51.454;6.736;2023-04-08T02:44:14;42.70;;;33.07;;
5351;SDS011;2698;51.454;6.736;2023-04-08T02:46:41;39.90;;;30.87;;
5351;SDS011;2698;51.454;6.736;2023-04-08T02:49:08;43.03;;;32.90;;
5351;SDS011;2698;51.454;6.736;2023-04-08T02:51:35;45.73;;;34.63;;
5351;SDS011;2698;51.454;6.736;2023-04-08T02:54:04;39.93;;;32.10;;
5351;SDS011;2698;51.454;6.736;2023-04-08T02:56:31;41.70;;;32.17;;
5351;SDS011;2698;51.454;6.736;2023-04-08T02:58:58;46.47;;;32.60;;
5351;SDS011;2698;51.454;6.736;2023-04-08T03:01:25;44.83;;;31.70;;
5351;SDS011;2698;51.454;6.736;2023-04-08T03:03:52;40.00;;;30.97;;
5351;SDS011;2698;51.454;6.736;2023-04-08T03:06:19;41.87;;;30.97;;
5351;SDS011;2698;51.454;6.736;2023-04-08T03:08:46;44.60;;;33.80;;
5351;SDS011;2698;51.454;6.736;2023-04-08T03:11:15;42.90;;;33.27;;
5351;SDS011;2698;51.454;6.736;2023-04-08T03:13:42;54.60;;;34.63;;
5351;SDS011;2698;51.454;6.736;2023-04-08T03:16:10;48.50;;;35.03;;
5351;SDS011;2698;51.454;6.736;2023-04-08T03:18:37;45.13;;;33.03;;
5351;SDS011;2698;51.454;6.736;2023-04-08T03:21:05;46.07;;;33.83;;
5351;SDS011;2698;51.454;6.736;2023-04-08T03:23:32;53.90;;;35.67;;
5351;SDS011;2698;51.454;6.736;2023-04-08T03:25:59;48.70;;;34.63;;
5351;SDS011;2698;51.454;6.736;2023-04-08T03:28:27;49.73;;;35.43;;
5351;SDS011;2698;51.454;6.736;2023-04-08T03:30:54;44.97;;;33.83;;
5351;SDS011;2698;51.454;6.736;2023-04-08T03:33:21;48.90;;;34.53;;
5351;SDS011;2698;51.454;6.736;2023-04-08T03:35:48;56.93;;;36.27;;
5351;SDS011;2698;51.454;6.736;2023-04-08T03:38:15;48.93;;;35.20;;
5351;SDS011;2698;51.454;6.736;2023-04-08T03:40:42;48.07;;;36.17;;
5351;SDS011;2698;51.454;6.736;2023-04-08T03:43:10;52.20;;;34.83;;
5351;SDS011;2698;51.454;6.736;2023-04-08T03:45:38;50.80;;;36.30;;
5351;SDS011;2698;51.454;6.736;2023-04-08T03:48:05;47.83;;;35.17;;
5351;SDS011;2698;51.454;6.736;2023-04-08T03:50:32;50.07;;;35.00;;
5351;SDS011;2698;51.454;6.736;2023-04-08T03:53:00;51.37;;;34.40;;
5351;SDS011;2698;51.454;6.736;2023-04-08T03:55:27;46.23;;;35.10;;
5351;SDS011;2698;51.454;6.736;2023-04-08T03:57:54;47.77;;;36.17;;
5351;SDS011;2698;51.454;6.736;2023-04-08T04:00:21;49.60;;;37.30;;
5351;SDS011;2698;51.454;6.736;2023-04-08T04:02:49;46.80;;;34.63;;
5351;SDS011;2698;51.454;6.736;2023-04-08T04:05:16;47.33;;;36.03;;
5351;SDS011;2698;51.454;6.736;2023-04-08T04:07:44;50.00;;;36.10;;
5351;SDS011;2698;51.454;6.736;2023-04-08T04:10:11;57.50;;;35.73;;
5351;SDS011;2698;51.454;6.736;2023-04-08T04:12:38;49.50;;;34.80;;
5351;SDS011;2698;51.454;6.736;2023-04-08T04:15:05;47.20;;;34.47;;
5351;SDS011;2698;51.454;6.736;2023-04-08T04:17:32;54.63;;;34.77;;
5351;SDS011;2698;51.454;6.736;2023-04-08T04:20:03;49.53;;;35.30;;
5351;SDS011;2698;51.454;6.736;2023-04-08T04:22:31;49.97;;;36.57;;
5351;SDS011;2698;51.454;6.736;2023-04-08T04:24:58;52.03;;;35.63;;
5351;SDS011;2698;51.454;6.736;2023-04-08T04:27:25;46.43;;;34.13;;
5351;SDS011;2698;51.454;6.736;2023-04-08T04:29:52;51.90;;;37.73;;
5351;SDS011;2698;51.454;6.736;2023-04-08T04:32:19;63.83;;;38.13;;
5351;SDS011;2698;51.454;6.736;2023-04-08T04:34:46;55.30;;;37.47;;
5351;SDS011;2698;51.454;6.736;2023-04-08T04:37:14;148.07;;;36.27;;
5351;SDS011;2698;51.454;6.736;2023-04-08T04:39:42;62.40;;;36.10;;
5351;SDS011;2698;51.454;6.736;2023-04-08T04:42:09;95.73;;;36.53;;
5351;SDS011;2698;51.454;6.736;2023-04-08T04:44:36;88.63;;;35.07;;
5351;SDS011;2698;51.454;6.736;2023-04-08T04:47:03;99.10;;;35.73;;
5351;SDS011;2698;51.454;6.736;2023-04-08T04:49:30;88.87;;;36.57;;
5351;SDS011;2698;51.454;6.736;2023-04-08T04:51:57;61.23;;;34.90;;
5351;SDS011;2698;51.454;6.736;2023-04-08T04:54:26;96.37;;;34.33;;
5351;SDS011;2698;51.454;6.736;2023-04-08T04:56:53;131.77;;;33.20;;
5351;SDS011;2698;51.454;6.736;2023-04-08T04:59:20;59.40;;;29.67;;
5351;SDS011;2698;51.454;6.736;2023-04-08T05:01:47;109.03;;;35.17;;
5351;SDS011;2698;51.454;6.736;2023-04-08T05:04:14;168.57;;;35.47;;
5351;SDS011;2698;51.454;6.736;2023-04-08T05:06:41;139.93;;;37.20;;
5351;SDS011;2698;51.454;6.736;2023-04-08T05:09:08;120.47;;;38.27;;
5351;SDS011;2698;51.454;6.736;2023-04-08T05:11:37;88.30;;;35.97;;
5351;SDS011;2698;51.454;6.736;2023-04-08T05:14:04;64.90;;;33.70;;
5351;SDS011;2698;51.454;6.736;2023-04-08T05:16:31;70.93;;;40.20;;
5351;SDS011;2698;51.454;6.736;2023-04-08T05:18:59;67.63;;;41.80;;
5351;SDS011;2698;51.454;6.736;2023-04-08T05:21:26;87.83;;;41.37;;
5351;SDS011;2698;51.454;6.736;2023-04-08T05:23:53;130.80;;;41.97;;
5351;SDS011;2698;51.454;6.736;2023-04-08T05:26:20;140.90;;;39.50;;
5351;SDS011;2698;51.454;6.736;2023-04-08T05:28:49;102.47;;;42.37;;
5351;SDS011;2698;51.454;6.736;2023-04-08T05:31:16;82.33;;;44.50;;
5351;SDS011;2698;51.454;6.736;2023-04-08T05:33:43;135.10;;;40.80;;
5351;SDS011;2698;51.454;6.736;2023-04-08T05:36:10;104.73;;;44.07;;
5351;SDS011;2698;51.454;6.736;2023-04-08T05:38:38;104.50;;;45.10;;
5351;SDS011;2698;51.454;6.736;2023-04-08T05:41:06;110.80;;;48.93;;
5351;SDS011;2698;51.454;6.736;2023-04-08T05:43:33;89.63;;;45.97;;
5351;SDS011;2698;51.454;6.736;2023-04-08T05:46:05;109.70;;;46.60;;
5351;SDS011;2698;51.454;6.736;2023-04-08T05:48:33;128.90;;;44.33;;
5351;SDS011;2698;51.454;6.736;2023-04-08T05:51:00;151.90;;;47.60;;
5351;SDS011;2698;51.454;6.736;2023-04-08T05:53:27;127.37;;;48.27;;
5351;SDS011;2698;51.454;6.736;2023-04-08T05:55:54;150.40;;;47.70;;
5351;SDS011;2698;51.454;6.736;2023-04-08T05:58:21;139.77;;;42.67;;
5351;SDS011;2698;51.454;6.736;2023-04-08T06:00:48;142.37;;;40.37;;
5351;SDS011;2698;51.454;6.736;2023-04-08T06:03:17;121.00;;;42.80;;
5351;SDS011;2698;51.454;6.736;2023-04-08T06:05:44;197.23;;;42.13;;
5351;SDS011;2698;51.454;6.736;2023-04-08T06:08:11;127.87;;;42.87;;
5351;SDS011;2698;51.454;6.736;2023-04-08T06:10:38;151.00;;;39.70;;
5351;SDS011;2698;51.454;6.736;2023-04-08T06:13:05;166.73;;;40.53;;
5351;SDS011;2698;51.454;6.736;2023-04-08T06:15:32;137.70;;;40.70;;
5351;SDS011;2698;51.454;6.736;2023-04-08T06:17:59;162.33;;;45.80;;
5351;SDS011;2698;51.454;6.736;2023-04-08T06:20:28;242.57;;;53.90;;
5351;SDS011;2698;51.454;6.736;2023-04-08T06:22:55;249.00;;;48.00;;
5351;SDS011;2698;51.454;6.736;2023-04-08T06:25:22;166.90;;;50.93;;
5351;SDS011;2698;51.454;6.736;2023-04-08T06:27:49;226.73;;;48.13;;
5351;SDS011;2698;51.454;6.736;2023-04-08T06:30:17;225.53;;;49.23;;
5351;SDS011;2698;51.454;6.736;2023-04-08T06:32:44;214.73;;;52.50;;
5351;SDS011;2698;51.454;6.736;2023-04-08T06:35:12;232.73;;;52.80;;
5351;SDS011;2698;51.454;6.736;2023-04-08T06:37:41;228.23;;;48.17;;
5351;SDS011;2698;51.454;6.736;2023-04-08T06:40:08;171.57;;;51.23;;
5351;SDS011;2698;51.454;6.736;2023-04-08T06:42:35;207.10;;;55.50;;
5351;SDS011;2698;51.454;6.736;2023-04-08T06:45:05;152.00;;;48.00;;
5351;SDS011;2698;51.454;6.736;2023-04-08T06:47:32;178.50;;;53.13;;
5351;SDS011;2698;51.454;6.736;2023-04-08T06:49:59;249.33;;;53.60;;
5351;SDS011;2698;51.454;6.736;2023-04-08T06:52:26;175.90;;;52.60;;
5351;SDS011;2698;51.454;6.736;2023-04-08T06:54:55;221.63;;;50.20;;
5351;SDS011;2698;51.454;6.736;2023-04-08T06:57:22;121.23;;;45.07;;
5351;SDS011;2698;51.454;6.736;2023-04-08T06:59:49;188.67;;;50.60;;
5351;SDS011;2698;51.454;6.736;2023-04-08T07:02:17;146.73;;;46.90;;
5351;SDS011;2698;51.454;6.736;2023-04-08T07:04:44;90.03;;;40.27;;
5351;SDS011;2698;51.454;6.736;2023-04-08T07:07:11;91.57;;;37.50;;
5351;SDS011;2698;51.454;6.736;2023-04-08T07:09:38;115.27;;;37.47;;
5351;SDS011;2698;51.454;6.736;2023-04-08T07:12:08;104.70;;;42.07;;
5351;SDS011;2698;51.454;6.736;2023-04-08T07:14:35;125.10;;;47.20;;
5351;SDS011;2698;51.454;6.736;2023-04-08T07:17:02;143.53;;;49.87;;
5351;SDS011;2698;51.454;6.736;2023-04-08T07:19:30;113.07;;;44.33;;
5351;SDS011;2698;51.454;6.736;2023-04-08T07:21:57;107.07;;;47.57;;
5351;SDS011;2698;51.454;6.736;2023-04-08T07:24:24;117.80;;;48.50;;
5351;SDS011;2698;51.454;6.736;2023-04-08T07:26:51;121.03;;;49.00;;
5351;SDS011;2698;51.454;6.736;2023-04-08T07:29:22;93.13;;;45.43;;
5351;SDS011;2698;51.454;6.736;2023-04-08T07:31:49;73.37;;;42.37;;
5351;SDS011;2698;51.454;6.736;2023-04-08T07:34:16;61.80;;;36.27;;
5351;SDS011;2698;51.454;6.736;2023-04-08T07:36:43;66.83;;;34.50;;
5351;SDS011;2698;51.454;6.736;2023-04-08T07:39:10;54.80;;;31.10;;
5351;SDS011;2698;51.454;6.736;2023-04-08T07:41:37;55.53;;;32.07;;
5351;SDS011;2698;51.454;6.736;2023-04-08T07:44:05;70.20;;;39.70;;
5351;SDS011;2698;51.454;6.736;2023-04-08T07:46:36;104.00;;;44.27;;
5351;SDS011;2698;51.454;6.736;2023-04-08T07:49:03;105.73;;;52.20;;
5351;SDS011;2698;51.454;6.736;2023-04-08T07:51:30;116.33;;;51.20;;
5351;SDS011;2698;51.454;6.736;2023-04-08T07:53:58;102.13;;;52.70;;
5351;SDS011;2698;51.454;6.736;2023-04-08T07:56:25;89.37;;;47.03;;
5351;SDS011;2698;51.454;6.736;2023-04-08T07:58:52;95.30;;;44.43;;
5351;SDS011;2698;51.454;6.736;2023-04-08T08:01:20;106.83;;;44.73;;
5351;SDS011;2698;51.454;6.736;2023-04-08T08:03:49;68.13;;;37.13;;
5351;SDS011;2698;51.454;6.736;2023-04-08T08:06:16;59.33;;;36.80;;
5351;SDS011;2698;51.454;6.736;2023-04-08T08:08:43;62.50;;;34.73;;
5351;SDS011;2698;51.454;6.736;2023-04-08T08:11:10;74.40;;;43.13;;
5351;SDS011;2698;51.454;6.736;2023-04-08T08:13:38;93.63;;;49.67;;
5351;SDS011;2698;51.454;6.736;2023-04-08T08:16:06;85.53;;;48.53;;
5351;SDS011;2698;51.454;6.736;2023-04-08T08:18:35;99.73;;;49.10;;
5351;SDS011;2698;51.454;6.736;2023-04-08T08:21:05;91.27;;;52.67;;
5351;SDS011;2698;51.454;6.736;2023-04-08T08:23:32;98.63;;;52.40;;
5351;SDS011;2698;51.454;6.736;2023-04-08T08:25:59;96.80;;;51.60;;
5351;SDS011;2698;51.454;6.736;2023-04-08T08:28:27;91.43;;;49.40;;
5351;SDS011;2698;51.454;6.736;2023-04-08T08:30:54;74.63;;;42.80;;
5351;SDS011;2698;51.454;6.736;2023-04-08T08:33:21;62.17;;;37.77;;
5351;SDS011;2698;51.454;6.736;2023-04-08T08:35:48;50.87;;;34.13;;
5351;SDS011;2698;51.454;6.736;2023-04-08T08:38:16;58.07;;;36.70;;
5351;SDS011;2698;51.454;6.736;2023-04-08T08:40:44;53.07;;;33.90;;
5351;SDS011;2698;51.454;6.736;2023-04-08T08:43:11;49.73;;;31.30;;
5351;SDS011;2698;51.454;6.736;2023-04-08T08:45:38;54.10;;;30.70;;
5351;SDS011;2698;51.454;6.736;2023-04-08T08:48:05;44.90;;;28.60;;
5351;SDS011;2698;51.454;6.736;2023-04-08T08:50:33;62.73;;;37.97;;
5351;SDS011;2698;51.454;6.736;2023-04-08T08:53:01;55.10;;;32.57;;
5351;SDS011;2698;51.454;6.736;2023-04-08T08:55:30;122.07;;;60.47;;
5351;SDS011;2698;51.454;6.736;2023-04-08T08:57:57;105.33;;;52.53;;
5351;SDS011;2698;51.454;6.736;2023-04-08T09:00:32;112.73;;;56.63;;
5351;SDS011;2698;51.454;6.736;2023-04-08T09:03:12;92.50;;;49.37;;
5351;SDS011;2698;51.454;6.736;2023-04-08T09:05:46;96.07;;;48.87;;
5351;SDS011;2698;51.454;6.736;2023-04-08T09:08:22;77.43;;;44.60;;
5351;SDS011;2698;51.454;6.736;2023-04-08T09:10:50;82.70;;;46.47;;
5351;SDS011;2698;51.454;6.736;2023-04-08T09:13:17;78.00;;;43.97;;
5351;SDS011;2698;51.454;6.736;2023-04-08T09:15:59;97.80;;;47.10;;
5351;SDS011;2698;51.454;6.736;2023-04-08T09:18:27;84.73;;;45.93;;
5351;SDS011;2698;51.454;6.736;2023-04-08T09:20:55;57.67;;;35.80;;
5351;SDS011;2698;51.454;6.736;2023-04-08T09:23:22;66.67;;;39.40;;
5351;SDS011;2698;51.454;6.736;2023-04-08T09:25:50;62.10;;;37.13;;
5351;SDS011;2698;51.454;6.736;2023-04-08T09:28:17;68.60;;;33.73;;
5351;SDS011;2698;51.454;6.736;2023-04-08T09:30:45;57.40;;;36.57;;
5351;SDS011;2698;51.454;6.736;2023-04-08T09:33:12;62.77;;;33.90;;
5351;SDS011;2698;51.454;6.736;2023-04-08T09:35:39;51.70;;;34.60;;
5351;SDS011;2698;51.454;6.736;2023-04-08T09:38:07;53.20;;;30.13;;
5351;SDS011;2698;51.454;6.736;2023-04-08T09:40:34;35.27;;;26.47;;
5351;SDS011;2698;51.454;6.736;2023-04-08T09:43:04;34.73;;;24.90;;
5351;SDS011;2698;51.454;6.736;2023-04-08T09:45:31;42.80;;;27.87;;
5351;SDS011;2698;51.454;6.736;2023-04-08T09:48:02;40.73;;;28.97;;
5351;SDS011;2698;51.454;6.736;2023-04-08T09:50:30;39.90;;;28.90;;
5351;SDS011;2698;51.454;6.736;2023-04-08T09:53:00;42.80;;;26.97;;
5351;SDS011;2698;51.454;6.736;2023-04-08T09:55:29;38.00;;;27.17;;
5351;SDS011;2698;51.454;6.736;2023-04-08T09:57:57;39.77;;;25.10;;
5351;SDS011;2698;51.454;6.736;2023-04-08T10:00:29;30.90;;;25.67;;
5351;SDS011;2698;51.454;6.736;2023-04-08T10:03:00;29.83;;;23.30;;
5351;SDS011;2698;51.454;6.736;2023-04-08T10:05:28;27.63;;;22.67;;
5351;SDS011;2698;51.454;6.736;2023-04-08T10:07:57;31.13;;;21.17;;
5351;SDS011;2698;51.454;6.736;2023-04-08T10:10:24;32.90;;;22.00;;
5351;SDS011;2698;51.454;6.736;2023-04-08T10:12:52;28.20;;;22.20;;
5351;SDS011;2698;51.454;6.736;2023-04-08T10:15:25;26.33;;;21.27;;
5351;SDS011;2698;51.454;6.736;2023-04-08T10:17:54;30.13;;;21.90;;
5351;SDS011;2698;51.454;6.736;2023-04-08T10:20:40;29.40;;;18.60;;
5351;SDS011;2698;51.454;6.736;2023-04-08T10:23:09;27.23;;;19.20;;
5351;SDS011;2698;51.454;6.736;2023-04-08T10:25:37;17.77;;;16.00;;
5351;SDS011;2698;51.454;6.736;2023-04-08T10:30:47;25.07;;;18.60;;
5351;SDS011;2698;51.454;6.736;2023-04-08T10:33:16;19.80;;;17.23;;
5351;SDS011;2698;51.454;6.736;2023-04-08T10:35:46;22.93;;;16.33;;
5351;SDS011;2698;51.454;6.736;2023-04-08T10:38:13;19.20;;;15.20;;
5351;SDS011;2698;51.454;6.736;2023-04-08T10:40:41;20.53;;;16.20;;
5351;SDS011;2698;51.454;6.736;2023-04-08T10:43:08;16.73;;;13.70;;
5351;SDS011;2698;51.454;6.736;2023-04-08T10:45:36;13.80;;;12.10;;
5351;SDS011;2698;51.454;6.736;2023-04-08T10:48:12;16.93;;;12.20;;
5351;SDS011;2698;51.454;6.736;2023-04-08T10:50:41;15.83;;;12.93;;
5351;SDS011;2698;51.454;6.736;2023-04-08T10:53:09;21.57;;;14.53;;
5351;SDS011;2698;51.454;6.736;2023-04-08T10:55:36;16.53;;;13.00;;
5351;SDS011;2698;51.454;6.736;2023-04-08T10:58:04;17.87;;;12.37;;
5351;SDS011;2698;51.454;6.736;2023-04-08T11:00:32;14.17;;;11.90;;
5351;SDS011;2698;51.454;6.736;2023-04-08T11:02:59;15.63;;;12.23;;
5351;SDS011;2698;51.454;6.736;2023-04-08T11:05:26;17.77;;;13.73;;
5351;SDS011;2698;51.454;6.736;2023-04-08T11:07:55;14.47;;;12.37;;
5351;SDS011;2698;51.454;6.736;2023-04-08T11:10:22;16.20;;;12.77;;
5351;SDS011;2698;51.454;6.736;2023-04-08T11:12:49;15.70;;;12.57;;
5351;SDS011;2698;51.454;6.736;2023-04-08T11:15:16;15.20;;;11.03;;
5351;SDS011;2698;51.454;6.736;2023-04-08T11:17:43;13.07;;;9.07;;
5351;SDS011;2698;51.454;6.736;2023-04-08T11:20:11;16.03;;;12.03;;
5351;SDS011;2698;51.454;6.736;2023-04-08T11:22:38;11.60;;;8.67;;
5351;SDS011;2698;51.454;6.736;2023-04-08T11:25:07;9.77;;;8.60;;
5351;SDS011;2698;51.454;6.736;2023-04-08T11:27:34;12.77;;;8.17;;
5351;SDS011;2698;51.454;6.736;2023-04-08T11:30:02;13.80;;;9.23;;
5351;SDS011;2698;51.454;6.736;2023-04-08T11:32:29;10.97;;;8.60;;
5351;SDS011;2698;51.454;6.736;2023-04-08T11:34:58;12.93;;;9.50;;
5351;SDS011;2698;51.454;6.736;2023-04-08T11:37:25;15.03;;;8.30;;
5351;SDS011;2698;51.454;6.736;2023-04-08T11:39:53;18.23;;;8.33;;
5351;SDS011;2698;51.454;6.736;2023-04-08T11:42:28;12.37;;;8.20;;
5351;SDS011;2698;51.454;6.736;2023-04-08T11:44:56;9.80;;;7.60;;
5351;SDS011;2698;51.454;6.736;2023-04-08T11:47:29;18.50;;;8.13;;
5351;SDS011;2698;51.454;6.736;2023-04-08T11:49:56;8.27;;;7.20;;
5351;SDS011;2698;51.454;6.736;2023-04-08T11:55:06;10.30;;;7.43;;
5351;SDS011;2698;51.454;6.736;2023-04-08T11:57:34;10.47;;;7.60;;
5351;SDS011;2698;51.454;6.736;2023-04-08T12:00:02;10.33;;;7.13;;
5351;SDS011;2698;51.454;6.736;2023-04-08T12:02:30;15.00;;;7.50;;
5351;SDS011;2698;51.454;6.736;2023-04-08T12:04:57;10.00;;;7.60;;
5351;SDS011;2698;51.454;6.736;2023-04-08T12:07:25;8.00;;;6.60;;
5351;SDS011;2698;51.454;6.736;2023-04-08T12:09:52;8.70;;;7.33;;
5351;SDS011;2698;51.454;6.736;2023-04-08T12:12:19;9.50;;;8.53;;
5351;SDS011;2698;51.454;6.736;2023-04-08T12:14:48;10.90;;;8.57;;
5351;SDS011;2698;51.454;6.736;2023-04-08T12:17:15;10.30;;;7.30;;
5351;SDS011;2698;51.454;6.736;2023-04-08T12:19:42;8.90;;;8.00;;
5351;SDS011;2698;51.454;6.736;2023-04-08T12:22:10;8.30;;;7.43;;
5351;SDS011;2698;51.454;6.736;2023-04-08T12:24:37;11.50;;;8.00;;
5351;SDS011;2698;51.454;6.736;2023-04-08T12:27:04;10.07;;;7.00;;
5351;SDS011;2698;51.454;6.736;2023-04-08T12:29:31;12.80;;;8.97;;
5351;SDS011;2698;51.454;6.736;2023-04-08T12:32:00;8.40;;;6.97;;
5351;SDS011;2698;51.454;6.736;2023-04-08T12:34:28;8.83;;;7.67;;
5351;SDS011;2698;51.454;6.736;2023-04-08T12:36:55;10.03;;;7.37;;
5351;SDS011;2698;51.454;6.736;2023-04-08T12:39:22;7.03;;;6.33;;
5351;SDS011;2698;51.454;6.736;2023-04-08T12:41:49;9.40;;;7.57;;
5351;SDS011;2698;51.454;6.736;2023-04-08T12:44:17;13.50;;;9.13;;
5351;SDS011;2698;51.454;6.736;2023-04-08T12:46:44;10.20;;;7.87;;
5351;SDS011;2698;51.454;6.736;2023-04-08T12:49:12;12.40;;;7.83;;
5351;SDS011;2698;51.454;6.736;2023-04-08T12:51:39;8.13;;;7.30;;
5351;SDS011;2698;51.454;6.736;2023-04-08T12:54:06;14.80;;;8.23;;
5351;SDS011;2698;51.454;6.736;2023-04-08T12:56:34;10.70;;;7.73;;
5351;SDS011;2698;51.454;6.736;2023-04-08T12:59:01;14.10;;;9.47;;
5351;SDS011;2698;51.454;6.736;2023-04-08T13:01:28;10.57;;;7.90;;
5351;SDS011;2698;51.454;6.736;2023-04-08T13:03:55;11.37;;;8.03;;
5351;SDS011;2698;51.454;6.736;2023-04-08T13:06:23;18.83;;;8.60;;
5351;SDS011;2698;51.454;6.736;2023-04-08T13:08:51;9.20;;;8.27;;
5351;SDS011;2698;51.454;6.736;2023-04-08T13:11:18;15.17;;;8.90;;
5351;SDS011;2698;51.454;6.736;2023-04-08T13:13:46;13.00;;;8.47;;
5351;SDS011;2698;51.454;6.736;2023-04-08T13:16:13;15.17;;;8.47;;
5351;SDS011;2698;51.454;6.736;2023-04-08T13:18:40;8.97;;;8.00;;
5351;SDS011;2698;51.454;6.736;2023-04-08T13:21:08;9.10;;;8.27;;
5351;SDS011;2698;51.454;6.736;2023-04-08T13:23:36;9.37;;;8.40;;
5351;SDS011;2698;51.454;6.736;2023-04-08T13:26:03;11.70;;;8.50;;
5351;SDS011;2698;51.454;6.736;2023-04-08T13:28:30;10.40;;;7.70;;
5351;SDS011;2698;51.454;6.736;2023-04-08T13:30:57;10.13;;;8.10;;
5351;SDS011;2698;51.454;6.736;2023-04-08T13:33:25;8.10;;;7.10;;
5351;SDS011;2698;51.454;6.736;2023-04-08T13:35:52;8.17;;;7.47;;
5351;SDS011;2698;51.454;6.736;2023-04-08T13:38:19;8.77;;;7.97;;
5351;SDS011;2698;51.454;6.736;2023-04-08T13:40:47;9.37;;;7.20;;
5351;SDS011;2698;51.454;6.736;2023-04-08T13:43:15;11.43;;;7.20;;
5351;SDS011;2698;51.454;6.736;2023-04-08T13:45:42;9.73;;;7.37;;
5351;SDS011;2698;51.454;6.736;2023-04-08T13:48:09;8.10;;;7.30;;
5351;SDS011;2698;51.454;6.736;2023-04-08T13:50:37;9.50;;;8.13;;
5351;SDS011;2698;51.454;6.736;2023-04-08T13:53:06;9.17;;;8.20;;
5351;SDS011;2698;51.454;6.736;2023-04-08T13:55:33;15.83;;;8.57;;
5351;SDS011;2698;51.454;6.736;2023-04-08T13:58:01;14.00;;;7.50;;
5351;SDS011;2698;51.454;6.736;2023-04-08T14:00:28;9.57;;;8.20;;
5351;SDS011;2698;51.454;6.736;2023-04-08T14:02:56;9.70;;;8.30;;
5351;SDS011;2698;51.454;6.736;2023-04-08T14:05:23;10.73;;;8.37;;
5351;SDS011;2698;51.454;6.736;2023-04-08T14:07:51;10.40;;;8.43;;
5351;SDS011;2698;51.454;6.736;2023-04-08T14:10:18;21.27;;;9.50;;
5351;SDS011;2698;51.454;6.736;2023-04-08T14:12:45;9.00;;;8.10;;
5351;SDS011;2698;51.454;6.736;2023-04-08T14:15:13;21.40;;;10.37;;
5351;SDS011;2698;51.454;6.736;2023-04-08T14:17:40;9.20;;;7.53;;
5351;SDS011;2698;51.454;6.736;2023-04-08T14:20:08;9.77;;;8.30;;
5351;SDS011;2698;51.454;6.736;2023-04-08T14:22:35;11.20;;;8.93;;
5351;SDS011;2698;51.454;6.736;2023-04-08T14:25:02;12.60;;;9.00;;
5351;SDS011;2698;51.454;6.736;2023-04-08T14:27:30;16.93;;;9.50;;
5351;SDS011;2698;51.454;6.736;2023-04-08T14:29:57;8.73;;;7.93;;
5351;SDS011;2698;51.454;6.736;2023-04-08T14:32:25;9.30;;;8.37;;
5351;SDS011;2698;51.454;6.736;2023-04-08T14:34:52;11.77;;;10.07;;
5351;SDS011;2698;51.454;6.736;2023-04-08T14:37:19;11.17;;;10.17;;
5351;SDS011;2698;51.454;6.736;2023-04-08T14:39:46;10.97;;;8.87;;
5351;SDS011;2698;51.454;6.736;2023-04-08T14:42:14;13.57;;;9.43;;
5351;SDS011;2698;51.454;6.736;2023-04-08T14:44:42;11.57;;;9.50;;
5351;SDS011;2698;51.454;6.736;2023-04-08T14:47:09;9.93;;;8.90;;
5351;SDS011;2698;51.454;6.736;2023-04-08T14:49:37;14.53;;;8.10;;
5351;SDS011;2698;51.454;6.736;2023-04-08T14:52:04;11.37;;;8.77;;
5351;SDS011;2698;51.454;6.736;2023-04-08T14:54:31;12.67;;;9.53;;
5351;SDS011;2698;51.454;6.736;2023-04-08T14:56:59;9.40;;;8.47;;
5351;SDS011;2698;51.454;6.736;2023-04-08T14:59:26;13.67;;;9.40;;